Main page
METAR-TAF:

METAR-TAF

Airports :

General Lucio Blanco International Airport

Reynosa, Mexico

latitude: 26-01N, longitude: 098-14W, elevation: 128 ft

Current weather observation

The report was made 1 hour and 0 minutes ago, at 18:44 UTC
Wind 7 mph from the North/Northeast
Temperature 82°F
Humidity 17%
Pressure 30.10 in. Hg
Visibility: 6 miles
Few clouds at a height of 30000 ft

METAR: MMRX 191844Z 03006KT 6SM FEW300 28/01 A3010 RMK 8/001 HZY

Time: 14:44 (19:44 UTC)

Forecast

The report was made 2 hours and 58 minutes ago, at 16:46 UTC
Forecast valid from 19 at 18 UTC to 20 at 18 UTC
Wind 14 mph from the North/Northeast
Visibility: 6 miles
Clear sky
From 20 at 0300 UTC
Wind 12 mph from the East
Visibility: 6 miles
Clear sky
From 20 at 1200 UTC
Wind 0 mph from the North
Visibility: 4 miles
Clear sky
haze, smoke

TAF: MMRX 191646Z 1918/2018 02012KT P6SM SKC FM200300 09010KT P6SM SKC FM201200 00000KT 4SM HZ FU SKC

Weather observations and forecasts of more than 4000 airports (METAR and TAF reports).

The available stations are represented by yellow and red dots on the map.

Hover mouse over dot to see the name of the station.

Then click to see weather observations and forecasts.

To change the map : click on the green buttons with a black cross to zoom in, on the green button with a dash to zoom out, or on the green arrows for adjacent maps.


METAR-TAF: